sensor_id;sensor_type;location;lat;lon;timestamp;pressure;altitude;pressure_sealevel;temperature;humidity
62524;BME280;53689;56.878;60.672;2023-04-15T00:02:17;98933.69;;;21.70;17.19
62524;BME280;53689;56.878;60.672;2023-04-15T00:04:45;98925.63;;;21.70;17.87
62524;BME280;53689;56.878;60.672;2023-04-15T00:07:13;98920.25;;;21.61;17.69
62524;BME280;53689;56.878;60.672;2023-04-15T00:09:41;98920.69;;;21.73;16.97
62524;BME280;53689;56.878;60.672;2023-04-15T00:12:09;98918.66;;;21.75;16.18
62524;BME280;53689;56.878;60.672;2023-04-15T00:14:37;98913.63;;;21.72;16.72
62524;BME280;53689;56.878;60.672;2023-04-15T00:17:04;98914.09;;;21.53;17.07
62524;BME280;53689;56.878;60.672;2023-04-15T00:19:33;98922.53;;;21.73;17.21
62524;BME280;53689;56.878;60.672;2023-04-15T00:22:01;98913.47;;;21.66;16.54
62524;BME280;53689;56.878;60.672;2023-04-15T00:24:28;98909.63;;;21.68;16.19
62524;BME280;53689;56.878;60.672;2023-04-15T00:26:55;98911.53;;;21.59;15.69
62524;BME280;53689;56.878;60.672;2023-04-15T00:29:23;98912.31;;;21.68;17.40
62524;BME280;53689;56.878;60.672;2023-04-15T00:31:51;98918.66;;;21.52;17.17
62524;BME280;53689;56.878;60.672;2023-04-15T00:34:18;98913.09;;;21.54;17.40
62524;BME280;53689;56.878;60.672;2023-04-15T00:36:47;98914.22;;;21.59;17.28
62524;BME280;53689;56.878;60.672;2023-04-15T00:39:14;98921.25;;;21.69;16.68
62524;BME280;53689;56.878;60.672;2023-04-15T00:41:42;98915.78;;;21.54;16.85
62524;BME280;53689;56.878;60.672;2023-04-15T00:44:11;98909.66;;;21.60;16.79
62524;BME280;53689;56.878;60.672;2023-04-15T00:46:39;98921.25;;;21.69;17.26
62524;BME280;53689;56.878;60.672;2023-04-15T00:49:07;98918.56;;;21.45;15.91
62524;BME280;53689;56.878;60.672;2023-04-15T00:51:35;98914.88;;;21.61;16.38
62524;BME280;53689;56.878;60.672;2023-04-15T00:54:04;98917.19;;;21.65;17.67
62524;BME280;53689;56.878;60.672;2023-04-15T00:56:34;98913.97;;;21.69;17.28
62524;BME280;53689;56.878;60.672;2023-04-15T00:59:02;98914.22;;;21.83;17.71
62524;BME280;53689;56.878;60.672;2023-04-15T01:01:33;98913.34;;;21.67;17.88
62524;BME280;53689;56.878;60.672;2023-04-15T01:04:01;98912.66;;;21.65;17.20
62524;BME280;53689;56.878;60.672;2023-04-15T01:06:30;98919.03;;;21.49;16.70
62524;BME280;53689;56.878;60.672;2023-04-15T01:08:58;98927.94;;;21.49;16.22
62524;BME280;53689;56.878;60.672;2023-04-15T01:11:28;98920.81;;;21.57;17.76
62524;BME280;53689;56.878;60.672;2023-04-15T01:13:57;98919.25;;;21.39;16.12
62524;BME280;53689;56.878;60.672;2023-04-15T01:16:25;98914.47;;;21.49;17.84
62524;BME280;53689;56.878;60.672;2023-04-15T01:18:53;98909.88;;;21.35;15.85
62524;BME280;53689;56.878;60.672;2023-04-15T01:21:22;98908.50;;;21.39;16.11
62524;BME280;53689;56.878;60.672;2023-04-15T01:23:50;98908.69;;;21.53;16.49
62524;BME280;53689;56.878;60.672;2023-04-15T01:26:20;98913.97;;;21.46;16.80
62524;BME280;53689;56.878;60.672;2023-04-15T01:28:49;98911.59;;;21.51;16.39
62524;BME280;53689;56.878;60.672;2023-04-15T01:31:16;98918.72;;;21.67;16.52
62524;BME280;53689;56.878;60.672;2023-04-15T01:33:44;98917.81;;;21.52;16.93
62524;BME280;53689;56.878;60.672;2023-04-15T01:36:13;98918.56;;;21.69;16.89
62524;BME280;53689;56.878;60.672;2023-04-15T01:38:41;98919.25;;;21.62;17.63
62524;BME280;53689;56.878;60.672;2023-04-15T01:41:09;98918.91;;;21.81;15.63
62524;BME280;53689;56.878;60.672;2023-04-15T01:43:38;98916.34;;;22.48;15.31
62524;BME280;53689;56.878;60.672;2023-04-15T01:46:08;98917.66;;;22.52;14.62
62524;BME280;53689;56.878;60.672;2023-04-15T01:48:36;98919.75;;;22.86;14.39
62524;BME280;53689;56.878;60.672;2023-04-15T01:51:03;98919.63;;;22.58;14.45
62524;BME280;53689;56.878;60.672;2023-04-15T01:53:31;98923.06;;;22.52;14.90
62524;BME280;53689;56.878;60.672;2023-04-15T01:55:58;98920.53;;;21.90;15.32
62524;BME280;53689;56.878;60.672;2023-04-15T01:58:26;98922.91;;;21.70;16.12
62524;BME280;53689;56.878;60.672;2023-04-15T02:00:55;98920.63;;;21.82;17.14
62524;BME280;53689;56.878;60.672;2023-04-15T02:03:23;98922.56;;;21.88;15.79
62524;BME280;53689;56.878;60.672;2023-04-15T02:05:51;98918.66;;;21.75;15.23
62524;BME280;53689;56.878;60.672;2023-04-15T02:08:20;98917.47;;;21.93;15.25
62524;BME280;53689;56.878;60.672;2023-04-15T02:10:47;98925.81;;;21.83;16.14
62524;BME280;53689;56.878;60.672;2023-04-15T02:13:15;98923.84;;;21.15;16.85
62524;BME280;53689;56.878;60.672;2023-04-15T02:15:46;98924.53;;;21.32;16.76
62524;BME280;53689;56.878;60.672;2023-04-15T02:18:16;98920.34;;;21.30;15.66
62524;BME280;53689;56.878;60.672;2023-04-15T02:20:43;98934.22;;;21.42;15.06
62524;BME280;53689;56.878;60.672;2023-04-15T02:23:11;98918.31;;;21.32;15.68
62524;BME280;53689;56.878;60.672;2023-04-15T02:25:39;98925.50;;;21.40;15.15
62524;BME280;53689;56.878;60.672;2023-04-15T02:28:06;98930.09;;;21.54;16.27
62524;BME280;53689;56.878;60.672;2023-04-15T02:30:34;98933.75;;;21.38;15.90
62524;BME280;53689;56.878;60.672;2023-04-15T02:33:02;98931.81;;;21.47;16.29
62524;BME280;53689;56.878;60.672;2023-04-15T02:35:31;98930.25;;;21.53;16.05
62524;BME280;53689;56.878;60.672;2023-04-15T02:37:59;98930.25;;;21.76;16.22
62524;BME280;53689;56.878;60.672;2023-04-15T02:40:27;98933.41;;;21.80;15.72
62524;BME280;53689;56.878;60.672;2023-04-15T02:42:54;98933.91;;;21.60;14.19
62524;BME280;53689;56.878;60.672;2023-04-15T02:45:22;98937.63;;;21.82;16.15
62524;BME280;53689;56.878;60.672;2023-04-15T02:47:50;98932.78;;;21.78;15.39
62524;BME280;53689;56.878;60.672;2023-04-15T02:50:17;98939.56;;;21.73;16.80
62524;BME280;53689;56.878;60.672;2023-04-15T02:52:46;98930.63;;;21.73;15.59
62524;BME280;53689;56.878;60.672;2023-04-15T02:55:14;98934.34;;;21.72;16.05
62524;BME280;53689;56.878;60.672;2023-04-15T02:57:41;98933.31;;;21.73;16.68
62524;BME280;53689;56.878;60.672;2023-04-15T03:00:11;98934.09;;;21.82;15.45
62524;BME280;53689;56.878;60.672;2023-04-15T03:02:41;98937.53;;;21.75;17.05
62524;BME280;53689;56.878;60.672;2023-04-15T03:05:11;98941.94;;;21.45;15.85
62524;BME280;53689;56.878;60.672;2023-04-15T03:07:41;98943.84;;;20.89;17.83
62524;BME280;53689;56.878;60.672;2023-04-15T03:10:11;98946.78;;;21.49;16.78
62524;BME280;53689;56.878;60.672;2023-04-15T03:12:39;98946.56;;;21.59;17.08
62524;BME280;53689;56.878;60.672;2023-04-15T03:15:09;98946.72;;;21.81;16.87
62524;BME280;53689;56.878;60.672;2023-04-15T03:17:41;98953.88;;;21.89;16.98
62524;BME280;53689;56.878;60.672;2023-04-15T03:20:09;98956.66;;;21.81;16.56
62524;BME280;53689;56.878;60.672;2023-04-15T03:22:37;98957.16;;;21.99;16.59
62524;BME280;53689;56.878;60.672;2023-04-15T03:25:05;98951.03;;;21.90;16.95
62524;BME280;53689;56.878;60.672;2023-04-15T03:27:34;98954.19;;;21.94;16.98
62524;BME280;53689;56.878;60.672;2023-04-15T03:30:03;98957.34;;;21.83;16.73
62524;BME280;53689;56.878;60.672;2023-04-15T03:32:32;98951.28;;;21.96;16.97
62524;BME280;53689;56.878;60.672;2023-04-15T03:35:00;98952.13;;;21.96;16.75
62524;BME280;53689;56.878;60.672;2023-04-15T03:37:27;98949.75;;;22.01;17.10
62524;BME280;53689;56.878;60.672;2023-04-15T03:39:55;98948.91;;;22.01;17.39
62524;BME280;53689;56.878;60.672;2023-04-15T03:42:23;98948.34;;;22.06;17.14
62524;BME280;53689;56.878;60.672;2023-04-15T03:44:52;98939.31;;;21.98;17.32
62524;BME280;53689;56.878;60.672;2023-04-15T03:47:19;98937.63;;;21.97;17.28
62524;BME280;53689;56.878;60.672;2023-04-15T03:49:47;98941.44;;;22.03;16.19
62524;BME280;53689;56.878;60.672;2023-04-15T03:52:14;98935.25;;;22.02;17.02
62524;BME280;53689;56.878;60.672;2023-04-15T03:54:42;98928.19;;;22.01;17.09
62524;BME280;53689;56.878;60.672;2023-04-15T03:57:09;98933.56;;;22.01;17.59
62524;BME280;53689;56.878;60.672;2023-04-15T03:59:37;98931.22;;;21.98;16.82
62524;BME280;53689;56.878;60.672;2023-04-15T04:02:06;98938.13;;;22.01;17.74
62524;BME280;53689;56.878;60.672;2023-04-15T04:04:33;98934.94;;;21.97;17.34
62524;BME280;53689;56.878;60.672;2023-04-15T04:07:01;98932.72;;;22.01;17.51
62524;BME280;53689;56.878;60.672;2023-04-15T04:09:28;98930.75;;;21.95;17.02
62524;BME280;53689;56.878;60.672;2023-04-15T04:11:56;98931.59;;;21.95;17.74
62524;BME280;53689;56.878;60.672;2023-04-15T04:14:24;98934.84;;;21.90;17.19
62524;BME280;53689;56.878;60.672;2023-04-15T04:16:51;98931.97;;;21.92;17.91
62524;BME280;53689;56.878;60.672;2023-04-15T04:19:20;98932.63;;;21.94;17.95
62524;BME280;53689;56.878;60.672;2023-04-15T04:21:47;98939.75;;;21.87;17.56
62524;BME280;53689;56.878;60.672;2023-04-15T04:24:15;98930.94;;;21.93;18.37
62524;BME280;53689;56.878;60.672;2023-04-15T04:26:42;98936.78;;;21.82;17.50
62524;BME280;53689;56.878;60.672;2023-04-15T04:29:10;98928.41;;;21.76;17.40
62524;BME280;53689;56.878;60.672;2023-04-15T04:31:37;98926.22;;;21.95;17.63
62524;BME280;53689;56.878;60.672;2023-04-15T04:34:05;98923.03;;;21.92;18.02
62524;BME280;53689;56.878;60.672;2023-04-15T04:36:34;98910.41;;;21.92;17.86
62524;BME280;53689;56.878;60.672;2023-04-15T04:39:02;98913.84;;;21.86;16.90
62524;BME280;53689;56.878;60.672;2023-04-15T04:41:29;98911.78;;;21.88;17.88
62524;BME280;53689;56.878;60.672;2023-04-15T04:43:57;98907.25;;;21.88;17.56
62524;BME280;53689;56.878;60.672;2023-04-15T04:46:25;98913.75;;;21.94;18.55
62524;BME280;53689;56.878;60.672;2023-04-15T04:48:53;98920.81;;;21.95;17.68
62524;BME280;53689;56.878;60.672;2023-04-15T04:51:21;98908.25;;;21.87;17.38
62524;BME280;53689;56.878;60.672;2023-04-15T04:53:50;98913.19;;;21.84;16.49
62524;BME280;53689;56.878;60.672;2023-04-15T04:56:18;98919.16;;;21.94;17.75
62524;BME280;53689;56.878;60.672;2023-04-15T04:58:45;98912.72;;;21.95;17.53
62524;BME280;53689;56.878;60.672;2023-04-15T05:01:13;98901.94;;;21.95;17.28
62524;BME280;53689;56.878;60.672;2023-04-15T05:03:41;98910.13;;;21.87;16.33
62524;BME280;53689;56.878;60.672;2023-04-15T05:06:08;98903.91;;;21.86;17.33
62524;BME280;53689;56.878;60.672;2023-04-15T05:08:36;98898.41;;;21.95;17.81
62524;BME280;53689;56.878;60.672;2023-04-15T05:11:07;98902.97;;;21.79;16.57
62524;BME280;53689;56.878;60.672;2023-04-15T05:13:35;98906.13;;;21.83;17.08
62524;BME280;53689;56.878;60.672;2023-04-15T05:16:03;98904.06;;;21.85;16.50
62524;BME280;53689;56.878;60.672;2023-04-15T05:18:30;98896.09;;;21.92;17.12
62524;BME280;53689;56.878;60.672;2023-04-15T05:20:58;98895.13;;;21.84;16.39
62524;BME280;53689;56.878;60.672;2023-04-15T05:23:26;98894.78;;;21.87;16.60
62524;BME280;53689;56.878;60.672;2023-04-15T05:25:54;98890.69;;;21.76;16.51
62524;BME280;53689;56.878;60.672;2023-04-15T05:28:23;98889.56;;;21.86;17.65
62524;BME280;53689;56.878;60.672;2023-04-15T05:30:51;98879.09;;;21.91;16.57
62524;BME280;53689;56.878;60.672;2023-04-15T05:33:18;98882.22;;;21.80;17.24
62524;BME280;53689;56.878;60.672;2023-04-15T05:35:46;98868.41;;;21.59;16.90
62524;BME280;53689;56.878;60.672;2023-04-15T05:38:13;98876.91;;;21.71;17.34
62524;BME280;53689;56.878;60.672;2023-04-15T05:40:41;98874.88;;;21.73;17.42
62524;BME280;53689;56.878;60.672;2023-04-15T05:43:08;98874.94;;;21.65;16.97
62524;BME280;53689;56.878;60.672;2023-04-15T05:45:37;98877.28;;;21.68;16.92
62524;BME280;53689;56.878;60.672;2023-04-15T05:48:05;98863.50;;;21.63;16.92
62524;BME280;53689;56.878;60.672;2023-04-15T05:50:33;98865.41;;;21.54;16.92
62524;BME280;53689;56.878;60.672;2023-04-15T05:53:01;98854.06;;;21.67;17.05
62524;BME280;53689;56.878;60.672;2023-04-15T05:55:29;98856.13;;;21.57;16.59
62524;BME280;53689;56.878;60.672;2023-04-15T05:57:57;98854.19;;;21.66;16.18
62524;BME280;53689;56.878;60.672;2023-04-15T06:00:24;98854.25;;;21.57;15.31
62524;BME280;53689;56.878;60.672;2023-04-15T06:02:54;98844.81;;;21.61;16.88
62524;BME280;53689;56.878;60.672;2023-04-15T06:05:22;98833.88;;;21.63;17.07
62524;BME280;53689;56.878;60.672;2023-04-15T06:07:49;98836.56;;;21.63;16.73
62524;BME280;53689;56.878;60.672;2023-04-15T06:10:17;98842.94;;;21.62;17.57
62524;BME280;53689;56.878;60.672;2023-04-15T06:12:45;98830.69;;;21.59;16.78
62524;BME280;53689;56.878;60.672;2023-04-15T06:15:12;98829.13;;;21.65;17.89
62524;BME280;53689;56.878;60.672;2023-04-15T06:17:40;98832.84;;;21.64;17.15
62524;BME280;53689;56.878;60.672;2023-04-15T06:20:10;98822.66;;;21.74;17.04
62524;BME280;53689;56.878;60.672;2023-04-15T06:22:37;98825.25;;;21.68;16.98
62524;BME280;53689;56.878;60.672;2023-04-15T06:25:06;98820.50;;;21.70;17.52
62524;BME280;53689;56.878;60.672;2023-04-15T06:27:34;98820.94;;;21.58;16.87
62524;BME280;53689;56.878;60.672;2023-04-15T06:30:02;98816.91;;;21.39;16.72
62524;BME280;53689;56.878;60.672;2023-04-15T06:32:29;98809.19;;;21.21;17.29
62524;BME280;53689;56.878;60.672;2023-04-15T06:34:58;98801.41;;;21.56;16.75
62524;BME280;53689;56.878;60.672;2023-04-15T06:37:27;98806.78;;;21.56;17.33
62524;BME280;53689;56.878;60.672;2023-04-15T06:39:55;98801.16;;;21.66;16.62
62524;BME280;53689;56.878;60.672;2023-04-15T06:42:23;98795.06;;;21.72;17.91
62524;BME280;53689;56.878;60.672;2023-04-15T06:44:50;98796.56;;;21.67;16.53
62524;BME280;53689;56.878;60.672;2023-04-15T06:47:18;98794.69;;;21.75;16.64
62524;BME280;53689;56.878;60.672;2023-04-15T06:49:46;98788.56;;;21.82;17.29
62524;BME280;53689;56.878;60.672;2023-04-15T06:52:13;98792.84;;;21.53;16.33
62524;BME280;53689;56.878;60.672;2023-04-15T06:54:42;98778.66;;;21.59;17.58
62524;BME280;53689;56.878;60.672;2023-04-15T06:57:09;98772.78;;;21.25;16.57
62524;BME280;53689;56.878;60.672;2023-04-15T06:59:37;98780.59;;;21.35;16.47
62524;BME280;53689;56.878;60.672;2023-04-15T07:02:06;98769.69;;;21.13;15.14
62524;BME280;53689;56.878;60.672;2023-04-15T07:04:35;98772.41;;;20.90;14.31
62524;BME280;53689;56.878;60.672;2023-04-15T07:07:03;98777.00;;;20.81;15.54
62524;BME280;53689;56.878;60.672;2023-04-15T07:09:30;98763.56;;;21.19;16.36
62524;BME280;53689;56.878;60.672;2023-04-15T07:11:59;98764.97;;;21.15;15.08
62524;BME280;53689;56.878;60.672;2023-04-15T07:14:27;98764.63;;;21.33;15.42
62524;BME280;53689;56.878;60.672;2023-04-15T07:16:55;98755.94;;;21.08;13.36
62524;BME280;53689;56.878;60.672;2023-04-15T07:19:23;98752.78;;;21.04;15.26
62524;BME280;53689;56.878;60.672;2023-04-15T07:21:50;98736.16;;;21.16;15.31
62524;BME280;53689;56.878;60.672;2023-04-15T07:24:18;98728.28;;;21.29;16.25
62524;BME280;53689;56.878;60.672;2023-04-15T07:26:46;98728.19;;;21.38;15.15
62524;BME280;53689;56.878;60.672;2023-04-15T07:29:15;98732.75;;;21.37;15.21
62524;BME280;53689;56.878;60.672;2023-04-15T07:31:42;98716.69;;;21.44;16.84
62524;BME280;53689;56.878;60.672;2023-04-15T07:34:10;98712.41;;;21.49;16.27
62524;BME280;53689;56.878;60.672;2023-04-15T07:36:37;98707.66;;;21.52;16.18
62524;BME280;53689;56.878;60.672;2023-04-15T07:39:05;98691.16;;;21.55;17.17
62524;BME280;53689;56.878;60.672;2023-04-15T07:41:33;98691.88;;;21.63;16.11
62524;BME280;53689;56.878;60.672;2023-04-15T07:44:00;98686.25;;;21.73;16.64
62524;BME280;53689;56.878;60.672;2023-04-15T07:46:29;98685.56;;;21.71;16.03
62524;BME280;53689;56.878;60.672;2023-04-15T07:48:58;98687.44;;;21.71;16.75
62524;BME280;53689;56.878;60.672;2023-04-15T07:51:25;98676.47;;;21.72;15.90
62524;BME280;53689;56.878;60.672;2023-04-15T07:53:53;98681.88;;;21.72;16.11
62524;BME280;53689;56.878;60.672;2023-04-15T07:56:20;98669.78;;;21.68;17.10
62524;BME280;53689;56.878;60.672;2023-04-15T07:58:48;98668.19;;;21.74;16.49
62524;BME280;53689;56.878;60.672;2023-04-15T08:01:16;98661.31;;;21.71;16.45
62524;BME280;53689;56.878;60.672;2023-04-15T08:03:45;98655.75;;;21.73;17.09
62524;BME280;53689;56.878;60.672;2023-04-15T08:06:13;98657.22;;;21.75;16.70
62524;BME280;53689;56.878;60.672;2023-04-15T08:08:40;98652.88;;;21.74;16.43
62524;BME280;53689;56.878;60.672;2023-04-15T08:11:08;98649.06;;;21.69;16.20
62524;BME280;53689;56.878;60.672;2023-04-15T08:13:35;98642.56;;;21.63;17.48
62524;BME280;53689;56.878;60.672;2023-04-15T08:16:18;98634.91;;;21.67;17.45
62524;BME280;53689;56.878;60.672;2023-04-15T08:18:48;98630.28;;;21.75;17.02
62524;BME280;53689;56.878;60.672;2023-04-15T08:21:16;98626.63;;;21.83;17.33
62524;BME280;53689;56.878;60.672;2023-04-15T08:23:45;98624.31;;;21.80;16.70
62524;BME280;53689;56.878;60.672;2023-04-15T08:26:13;98615.22;;;21.81;16.62
62524;BME280;53689;56.878;60.672;2023-04-15T08:28:42;98608.78;;;21.82;16.62
62524;BME280;53689;56.878;60.672;2023-04-15T08:31:10;98609.03;;;21.51;14.80
62524;BME280;53689;56.878;60.672;2023-04-15T08:33:38;98606.59;;;21.56;15.29
62524;BME280;53689;56.878;60.672;2023-04-15T08:36:07;98608.53;;;21.62;16.19
62524;BME280;53689;56.878;60.672;2023-04-15T08:38:35;98604.44;;;21.66;17.29
62524;BME280;53689;56.878;60.672;2023-04-15T08:41:08;98603.69;;;21.57;16.47
62524;BME280;53689;56.878;60.672;2023-04-15T08:43:46;98601.28;;;21.62;16.80
62524;BME280;53689;56.878;60.672;2023-04-15T08:46:15;98605.47;;;21.65;16.69
62524;BME280;53689;56.878;60.672;2023-04-15T08:48:43;98595.63;;;21.72;16.91
62524;BME280;53689;56.878;60.672;2023-04-15T08:51:13;98589.59;;;21.55;16.86
62524;BME280;53689;56.878;60.672;2023-04-15T08:53:41;98588.69;;;21.48;15.06
62524;BME280;53689;56.878;60.672;2023-04-15T08:56:11;98590.69;;;21.61;16.26
62524;BME280;53689;56.878;60.672;2023-04-15T08:58:40;98575.56;;;21.60;16.77
62524;BME280;53689;56.878;60.672;2023-04-15T09:01:07;98576.00;;;21.63;15.77
62524;BME280;53689;56.878;60.672;2023-04-15T09:03:36;98577.59;;;21.58;16.70
62524;BME280;53689;56.878;60.672;2023-04-15T09:06:05;98569.06;;;21.54;15.87
62524;BME280;53689;56.878;60.672;2023-04-15T09:08:34;98560.59;;;21.20;16.05
62524;BME280;53689;56.878;60.672;2023-04-15T09:11:02;98562.66;;;21.18;13.87
62524;BME280;53689;56.878;60.672;2023-04-15T09:13:30;98556.69;;;21.23;14.87
62524;BME280;53689;56.878;60.672;2023-04-15T09:15:57;98553.41;;;21.43;15.80
62524;BME280;53689;56.878;60.672;2023-04-15T09:18:29;98543.94;;;21.32;15.08
62524;BME280;53689;56.878;60.672;2023-04-15T09:21:04;98546.56;;;21.25;13.94
62524;BME280;53689;56.878;60.672;2023-04-15T09:23:34;98542.19;;;21.39;15.21
62524;BME280;53689;56.878;60.672;2023-04-15T09:26:01;98530.94;;;21.35;13.14
62524;BME280;53689;56.878;60.672;2023-04-15T09:28:29;98543.69;;;21.27;13.96
62524;BME280;53689;56.878;60.672;2023-04-15T09:30:57;98528.19;;;21.51;15.27
62524;BME280;53689;56.878;60.672;2023-04-15T09:33:25;98525.63;;;21.42;15.34
62524;BME280;53689;56.878;60.672;2023-04-15T09:35:57;98536.09;;;21.67;16.20
62524;BME280;53689;56.878;60.672;2023-04-15T09:38:25;98514.03;;;21.63;16.35
62524;BME280;53689;56.878;60.672;2023-04-15T09:40:54;98518.22;;;21.66;16.19
62524;BME280;53689;56.878;60.672;2023-04-15T09:43:22;98521.59;;;21.53;15.76
62524;BME280;53689;56.878;60.672;2023-04-15T09:45:51;98516.41;;;21.52;13.92
62524;BME280;53689;56.878;60.672;2023-04-15T09:48:20;98509.50;;;21.27;13.77
62524;BME280;53689;56.878;60.672;2023-04-15T09:50:48;98507.25;;;20.79;13.39
62524;BME280;53689;56.878;60.672;2023-04-15T09:53:17;98496.78;;;20.84;14.21
62524;BME280;53689;56.878;60.672;2023-04-15T09:55:45;98493.72;;;21.02;13.79
62524;BME280;53689;56.878;60.672;2023-04-15T09:58:22;98499.69;;;21.19;13.62
62524;BME280;53689;56.878;60.672;2023-04-15T10:00:51;98489.06;;;21.33;14.66
62524;BME280;53689;56.878;60.672;2023-04-15T10:03:20;98490.38;;;21.37;14.76
62524;BME280;53689;56.878;60.672;2023-04-15T10:05:49;98487.16;;;21.48;15.34
62524;BME280;53689;56.878;60.672;2023-04-15T10:08:18;98484.41;;;21.42;13.14
62524;BME280;53689;56.878;60.672;2023-04-15T10:10:47;98478.16;;;21.19;13.38
62524;BME280;53689;56.878;60.672;2023-04-15T10:13:16;98472.47;;;20.62;13.09
62524;BME280;53689;56.878;60.672;2023-04-15T10:15:56;98464.00;;;20.80;13.60
62524;BME280;53689;56.878;60.672;2023-04-15T10:18:25;98469.72;;;21.44;15.97
62524;BME280;53689;56.878;60.672;2023-04-15T10:20:53;98461.88;;;21.49;13.34
62524;BME280;53689;56.878;60.672;2023-04-15T10:23:22;98455.41;;;21.22;15.31
62524;BME280;53689;56.878;60.672;2023-04-15T10:25:50;98452.25;;;21.62;15.70
62524;BME280;53689;56.878;60.672;2023-04-15T10:28:19;98445.31;;;21.68;16.11
62524;BME280;53689;56.878;60.672;2023-04-15T10:30:49;98454.59;;;21.65;15.99
62524;BME280;53689;56.878;60.672;2023-04-15T10:33:18;98451.53;;;21.68;16.10
62524;BME280;53689;56.878;60.672;2023-04-15T10:35:47;98441.25;;;21.79;17.06
62524;BME280;53689;56.878;60.672;2023-04-15T10:38:32;98435.09;;;21.63;15.50
62524;BME280;53689;56.878;60.672;2023-04-15T10:41:16;98438.94;;;21.54;16.99
62524;BME280;53689;56.878;60.672;2023-04-15T10:43:51;98436.38;;;21.67;16.36
62524;BME280;53689;56.878;60.672;2023-04-15T10:46:23;98418.19;;;21.76;16.58
62524;BME280;53689;56.878;60.672;2023-04-15T10:48:52;98425.03;;;21.50;14.92
62524;BME280;53689;56.878;60.672;2023-04-15T10:51:28;98409.31;;;21.54;16.13
62524;BME280;53689;56.878;60.672;2023-04-15T10:53:56;98416.53;;;21.53;16.22
62524;BME280;53689;56.878;60.672;2023-04-15T10:56:25;98413.91;;;21.60;16.48
62524;BME280;53689;56.878;60.672;2023-04-15T10:58:54;98401.22;;;21.54;15.18
62524;BME280;53689;56.878;60.672;2023-04-15T11:01:49;98398.00;;;21.65;15.60
62524;BME280;53689;56.878;60.672;2023-04-15T11:07:37;98393.78;;;21.56;15.89
62524;BME280;53689;56.878;60.672;2023-04-15T11:13:20;98381.13;;;21.56;15.62
62524;BME280;53689;56.878;60.672;2023-04-15T11:15:48;98379.28;;;21.57;15.37
62524;BME280;53689;56.878;60.672;2023-04-15T11:18:19;98382.38;;;21.32;13.51
62524;BME280;53689;56.878;60.672;2023-04-15T11:20:48;98377.31;;;21.22;14.93
62524;BME280;53689;56.878;60.672;2023-04-15T11:23:16;98378.16;;;21.44;15.63
62524;BME280;53689;56.878;60.672;2023-04-15T11:25:44;98375.75;;;21.56;15.00
62524;BME280;53689;56.878;60.672;2023-04-15T11:28:12;98367.72;;;21.63;15.64
62524;BME280;53689;56.878;60.672;2023-04-15T11:30:41;98363.91;;;21.72;15.75
62524;BME280;53689;56.878;60.672;2023-04-15T11:33:09;98373.41;;;21.75;16.13
62524;BME280;53689;56.878;60.672;2023-04-15T11:35:40;98364.13;;;21.78;15.40
62524;BME280;53689;56.878;60.672;2023-04-15T11:38:09;98363.53;;;21.82;16.01
62524;BME280;53689;56.878;60.672;2023-04-15T11:40:37;98365.78;;;21.79;14.33
62524;BME280;53689;56.878;60.672;2023-04-15T11:43:06;98353.59;;;21.83;15.64
62524;BME280;53689;56.878;60.672;2023-04-15T11:45:34;98358.53;;;21.79;15.24
62524;BME280;53689;56.878;60.672;2023-04-15T11:48:07;98354.63;;;21.82;16.40
62524;BME280;53689;56.878;60.672;2023-04-15T11:50:35;98360.38;;;21.79;15.87
62524;BME280;53689;56.878;60.672;2023-04-15T11:53:06;98353.34;;;21.78;14.96
62524;BME280;53689;56.878;60.672;2023-04-15T11:55:41;98353.59;;;21.83;14.29
62524;BME280;53689;56.878;60.672;2023-04-15T11:58:10;98354.81;;;21.80;14.82
62524;BME280;53689;56.878;60.672;2023-04-15T12:00:38;98351.88;;;21.75;15.54
62524;BME280;53689;56.878;60.672;2023-04-15T12:03:13;98352.66;;;21.69;12.73
62524;BME280;53689;56.878;60.672;2023-04-15T12:06:06;98352.97;;;21.59;14.10
62524;BME280;53689;56.878;60.672;2023-04-15T12:08:54;98351.84;;;21.46;13.72
62524;BME280;53689;56.878;60.672;2023-04-15T12:11:39;98340.03;;;21.47;12.67
62524;BME280;53689;56.878;60.672;2023-04-15T12:14:23;98354.63;;;21.60;14.39
62524;BME280;53689;56.878;60.672;2023-04-15T12:16:52;98338.59;;;21.73;15.20
62524;BME280;53689;56.878;60.672;2023-04-15T12:19:24;98344.03;;;21.80;15.25
62524;BME280;53689;56.878;60.672;2023-04-15T12:21:53;98345.69;;;21.81;15.38
62524;BME280;53689;56.878;60.672;2023-04-15T12:24:30;98349.03;;;21.83;14.86
62524;BME280;53689;56.878;60.672;2023-04-15T12:27:01;98347.16;;;21.84;15.38
62524;BME280;53689;56.878;60.672;2023-04-15T12:29:29;98353.16;;;21.79;12.75
62524;BME280;53689;56.878;60.672;2023-04-15T12:32:02;98345.41;;;21.69;12.41
62524;BME280;53689;56.878;60.672;2023-04-15T12:34:32;98352.41;;;20.76;12.85
62524;BME280;53689;56.878;60.672;2023-04-15T12:37:01;98341.94;;;21.25;16.09
62524;BME280;53689;56.878;60.672;2023-04-15T12:39:33;98340.94;;;21.55;15.68
62524;BME280;53689;56.878;60.672;2023-04-15T12:42:02;98342.13;;;21.74;14.33
62524;BME280;53689;56.878;60.672;2023-04-15T12:44:30;98334.88;;;21.74;14.68
62524;BME280;53689;56.878;60.672;2023-04-15T12:46:58;98342.97;;;21.53;12.61
62524;BME280;53689;56.878;60.672;2023-04-15T12:49:27;98343.81;;;21.53;12.47
62524;BME280;53689;56.878;60.672;2023-04-15T12:51:56;98341.66;;;21.42;13.88
62524;BME280;53689;56.878;60.672;2023-04-15T12:54:24;98336.50;;;21.47;13.07
62524;BME280;53689;56.878;60.672;2023-04-15T12:56:54;98341.31;;;21.52;12.92
62524;BME280;53689;56.878;60.672;2023-04-15T12:59:22;98338.88;;;21.57;14.34
62524;BME280;53689;56.878;60.672;2023-04-15T13:01:50;98332.16;;;21.68;15.61
62524;BME280;53689;56.878;60.672;2023-04-15T13:04:19;98338.22;;;21.76;13.78
62524;BME280;53689;56.878;60.672;2023-04-15T13:06:47;98338.22;;;21.76;14.05